Keeseville, NY (12944)

10:39 PM EST on February 09, 2016 (GMT -0500)
Lake Champlain South Valcour | | Change Station
CLOSE
Current Station
Personal Weather Station
Location: Peru, NY
Elevation: 92 ft
Nearby Weather Stations

Elev 92 ft 44.60 °N, 73.44 °W | Updated 9 minutes ago

Overcast
Overcast
21.6 °F
Feels Like 22 °F
N
0.0
Wind Variable Wind from West

Today
High -- | Low -- °F
--% Chance of Precip.
Yesterday
High -- | Low -- °F
Precip. -- in
Pressure 29.58 in
Visibility 3.0 miles
Clouds Scattered Clouds 1100 ft
Overcast 4000 ft
Windchill 22 °F
Dew Point 19 °F
Humidity 90%
Rainfall 0.00 in
Snow Depth Not available.
7:03 AM 5:13 PM
Waxing Crescent, 3% visible
METAR KPBG 100253Z AUTO 31004KT 3SM -SN BR SCT011 OVC040 M06/M08 A2956 RMK AO2 SLP016 P0000 60000 T10561078 58010
Pressure 29.58 in
Visibility 3.0 miles
Clouds Scattered Clouds 1100 ft
Overcast 4000 ft
Windchill 22 °F
Dew Point 19 °F
Humidity 90%
Rainfall 0.00 in
Snow Depth Not available.
7:03 AM 5:13 PM
Waxing Crescent, 3% visible
METAR KPBG 100253Z AUTO 31004KT 3SM -SN BR SCT011 OVC040 M06/M08 A2956 RMK AO2 SLP016 P0000 60000 T10561078 58010

10-Day Weather Forecast

Almanac

Astronomy

Feb. 09, 2016 Rise Set
Actual Time
Civil Twilight
Nautical Twilight
Astronomical Twilight
Moon
Length of Visible Light
Length of Day
Tomorrow will be .
, % of the Moon is Illuminated

Today's Extremes

State Highs State Lows

Community

WunderPhotos

Upload Photos

1,891,792 photos uploaded!

WunderBlog® & News

Nearby

Air Quality

  Air Quality AQ Index Pollutant
Not available.

Snow Depth

Station Depth Elevation

Earthquake Activity

City Distance Mag. Time & Date
Minimum magnitude displayed is 2.5.

Coastal Water Temperatures

Place Temperature

Stations

Nearby Weather Stations

Station Location Temp. Windchill Dew Point Humidity Wind Precip. Elev Updated Type
                   

Watches & Warnings

There are currently no watches in effect.